This is the latest recevied weather packets stored in our database for station/object AI4ZL. If no packets are shown the sender has not sent any weather packets the latest 10 day(s).
| Time | Temp. | Humidity | Pressure | Rain* | Wind** | Luminosity | Snow |
|---|---|---|---|---|---|---|---|
| 1777908643 | 23.89° C | 58% | 1012.4 hPa | 0 mm | - | 742 W/m² | - |
| 1777906227 | 22.22° C | 64% | 1012.7 hPa | 0 mm | - | 614 W/m² | - |
| 1777905019 | 21.11° C | 65% | 1012.7 hPa | 0 mm | - | 583 W/m² | - |
| 1777903218 | 20° C | 68% | 1012.9 hPa | 0 mm | - | 456 W/m² | - |
| 1777898443 | 17.22° C | 72% | 1012.9 hPa | 0 mm | - | 136 W/m² | - |
| 1777896622 | 15.56° C | 75% | 1012.8 hPa | 0 mm | - | 44 W/m² | - |
| 1777895431 | 15° C | 75% | 1012.4 hPa | 0 mm | - | 29 W/m² | - |
| 1777890638 | 14.44° C | 74% | 1012.3 hPa | 0 mm | - | 0 W/m² | - |
| 1777885825 | 14.44° C | 72% | 1012.4 hPa | 0 mm | - | 0 W/m² | - |
| 1777873228 | 16.11° C | 61% | 1013.6 hPa | 0 mm | - | 0 W/m² | - |
| 1777872021 | 15.56° C | 60% | 1013.9 hPa | 0 mm | - | 0 W/m² | - |
| 1777870218 | 15.56° C | 60% | 1013.9 hPa | 0 mm | - | 0 W/m² | - |
| 1777867226 | 15.56° C | 60% | 1014.4 hPa | 0 mm | - | 0 W/m² | - |
| 1777866631 | 15° C | 60% | 1014.4 hPa | 0 mm | - | 0 W/m² | - |
| 1777860038 | 17.78° C | 52% | 1014.2 hPa | 0 mm | - | 0 W/m² | - |
| 1777857025 | 17.78° C | 50% | 1013.9 hPa | 0 mm | - | 0 W/m² | - |
| 1777850429 | 21.11° C | 40% | 1014.9 hPa | 0 mm | - | 122 W/m² | - |
| 1777849818 | 21.11° C | 39% | 1014.8 hPa | 0 mm | - | 159 W/m² | - |
| 1777848032 | 21.67° C | 39% | 1015.1 hPa | 0 mm | - | 235 W/m² | - |
| 1777839617 | 21.11° C | 43% | 1017.9 hPa | 0 mm | - | 582 W/m² | - |
| 1777833633 | 19.44° C | 47% | 1020.2 hPa | 0 mm | - | 660 W/m² | - |
| 1777831830 | 19.44° C | 46% | 1020.7 hPa | 0 mm | - | 741 W/m² | - |
| 1777830623 | 18.89° C | 48% | 1021.1 hPa | 0 mm | - | 742 W/m² | - |
| 1777828821 | 17.78° C | 49% | 1021.4 hPa | 0 mm | - | 610 W/m² | - |
| 1777822820 | 15.56° C | 56% | 1022.6 hPa | 0 mm | - | 711 W/m² | - |
* Rain latest hour (hover to see other rain measurements)
** Current wind speed in m/s (hover to see current wind gust speed)